createdAt,value
2017-11-27T00:01:37.755Z,98759.08
2017-11-27T00:04:05.146Z,98763.27
2017-11-27T00:06:32.561Z,98762.57
2017-11-27T00:08:59.989Z,98765.04
2017-11-27T00:11:27.377Z,98760.53
2017-11-27T00:13:54.808Z,98762.08
2017-11-27T00:16:22.381Z,98759.41
2017-11-27T00:18:50.306Z,98753.02
2017-11-27T00:21:18.355Z,98765.17
2017-11-27T00:23:45.822Z,98764.13
2017-11-27T00:26:13.212Z,98759.70
2017-11-27T00:28:40.639Z,98761.94
2017-11-27T00:31:08.208Z,98753.07
2017-11-27T00:33:35.633Z,98761.51
2017-11-27T00:36:03.069Z,98759.06
2017-11-27T00:38:30.485Z,98766.66
2017-11-27T00:40:57.890Z,98759.67
2017-11-27T00:43:25.320Z,98764.02
2017-11-27T00:45:53.290Z,98761.39
2017-11-27T00:48:21.622Z,98762.84
2017-11-27T00:50:49.298Z,98758.36
2017-11-27T00:53:17.024Z,98765.25
2017-11-27T00:55:44.423Z,98760.50
2017-11-27T00:58:12.003Z,98765.09
2017-11-27T01:00:39.802Z,98765.13
2017-11-27T01:03:07.337Z,98756.83
2017-11-27T01:05:34.756Z,98759.58
2017-11-27T01:08:02.226Z,98760.39
2017-11-27T01:10:29.614Z,98752.66
2017-11-27T01:12:57.067Z,98759.55
2017-11-27T01:15:24.528Z,98757.88
2017-11-27T01:17:51.945Z,98761.70
2017-11-27T01:20:19.468Z,98760.41
2017-11-27T01:22:47.048Z,98769.19
2017-11-27T01:25:14.513Z,98766.67
2017-11-27T01:27:41.984Z,98768.11
2017-11-27T01:30:09.452Z,98761.73
2017-11-27T01:32:36.991Z,98763.55
2017-11-27T01:35:04.424Z,98753.56
2017-11-27T01:37:31.835Z,98767.80
2017-11-27T01:39:59.351Z,98767.05
2017-11-27T01:42:26.732Z,98770.73
2017-11-27T01:44:54.148Z,98765.75
2017-11-27T01:47:21.706Z,98765.20
2017-11-27T01:49:49.748Z,98765.01
2017-11-27T01:52:17.226Z,98770.59
2017-11-27T01:54:44.668Z,98771.23
2017-11-27T01:57:12.136Z,98768.59
2017-11-27T01:59:39.560Z,98771.81
2017-11-27T02:02:06.971Z,98765.99
2017-11-27T02:04:34.444Z,98767.94
2017-11-27T02:07:01.840Z,98764.74
2017-11-27T02:09:29.271Z,98760.64
2017-11-27T02:11:56.676Z,98760.55
2017-11-27T02:14:24.091Z,98769.09
2017-11-27T02:16:51.588Z,98764.89
2017-11-27T02:19:19.204Z,98762.55
2017-11-27T02:21:46.941Z,98768.45
2017-11-27T02:24:14.411Z,98761.15
2017-11-27T02:26:41.876Z,98761.14
2017-11-27T02:29:09.271Z,98757.06
2017-11-27T02:31:36.821Z,98751.41
2017-11-27T02:34:04.301Z,98750.02
2017-11-27T02:36:31.747Z,98747.96
2017-11-27T02:38:59.146Z,98752.32
2017-11-27T02:41:26.614Z,98754.69
2017-11-27T02:43:54.116Z,98756.41
2017-11-27T02:46:21.696Z,98749.70
2017-11-27T02:48:49.233Z,98743.41
2017-11-27T02:51:16.855Z,98747.97
2017-11-27T02:53:44.278Z,98750.37
2017-11-27T02:56:11.712Z,98749.21
2017-11-27T02:58:39.236Z,98750.53
2017-11-27T03:01:06.828Z,98742.09
2017-11-27T03:03:34.347Z,98743.22
2017-11-27T03:06:01.779Z,98738.14
2017-11-27T03:08:29.187Z,98745.50
2017-11-27T03:10:56.601Z,98748.12
2017-11-27T03:13:24.011Z,98750.04
2017-11-27T03:15:51.506Z,98756.75
2017-11-27T03:18:19.089Z,98748.31
2017-11-27T03:20:46.613Z,98750.76
2017-11-27T03:23:14.171Z,98750.86
2017-11-27T03:25:41.594Z,98748.31
2017-11-27T03:28:09.011Z,98748.54
2017-11-27T03:30:36.460Z,98737.90
2017-11-27T03:33:03.851Z,98741.08
2017-11-27T03:35:31.241Z,98736.43
2017-11-27T03:37:58.683Z,98733.27
2017-11-27T03:40:26.093Z,98742.13
2017-11-27T03:42:53.612Z,98738.45
2017-11-27T03:45:21.279Z,98739.17
2017-11-27T03:47:48.818Z,98741.03
2017-11-27T03:50:16.394Z,98729.02
2017-11-27T03:52:43.847Z,98729.38
2017-11-27T03:55:11.231Z,98731.67
2017-11-27T03:57:39.135Z,98734.23
2017-11-27T04:00:06.876Z,98727.97
2017-11-27T04:02:34.338Z,98726.30
2017-11-27T04:05:01.811Z,98723.80
2017-11-27T04:07:29.251Z,98718.23
2017-11-27T04:09:56.749Z,98713.87
2017-11-27T04:12:24.327Z,98721.07
2017-11-27T04:14:51.736Z,98711.42
2017-11-27T04:17:19.367Z,98712.17
2017-11-27T04:19:46.793Z,98709.27
2017-11-27T04:22:14.316Z,98711.26
2017-11-27T04:24:41.703Z,98710.84
2017-11-27T04:27:09.133Z,98712.23
2017-11-27T04:29:36.545Z,98714.73
2017-11-27T04:32:04.108Z,98710.00
2017-11-27T04:34:31.553Z,98707.45
2017-11-27T04:36:58.999Z,98698.27
2017-11-27T04:39:26.394Z,98697.64
2017-11-27T04:41:53.861Z,98696.16
2017-11-27T04:44:21.383Z,98690.61
2017-11-27T04:46:48.933Z,98701.74
2017-11-27T04:49:16.398Z,98686.26
2017-11-27T04:51:43.842Z,98686.33
2017-11-27T04:54:11.290Z,98680.16
2017-11-27T04:56:38.676Z,98690.66
2017-11-27T04:59:06.155Z,98688.19
2017-11-27T05:01:33.546Z,98679.31
2017-11-27T05:04:00.979Z,98687.66
2017-11-27T05:06:28.367Z,98683.91
2017-11-27T05:08:55.803Z,98691.58
2017-11-27T05:11:23.213Z,98683.95
2017-11-27T05:13:50.655Z,98697.09
2017-11-27T05:16:18.058Z,98686.09
2017-11-27T05:18:45.503Z,98682.88
2017-11-27T05:21:12.900Z,98693.86
2017-11-27T05:23:40.319Z,98682.09
2017-11-27T05:26:07.741Z,98685.48
2017-11-27T05:28:35.266Z,98681.63
2017-11-27T05:31:02.749Z,98680.44
2017-11-27T05:33:30.324Z,98684.28
2017-11-27T05:35:57.788Z,98684.36
2017-11-27T05:38:25.559Z,98680.11
2017-11-27T05:40:53.066Z,98682.84
2017-11-27T05:43:20.550Z,98677.47
2017-11-27T05:45:48.020Z,98679.38
2017-11-27T05:48:15.490Z,98677.64
2017-11-27T05:50:42.893Z,98680.34
2017-11-27T05:53:10.332Z,98674.44
2017-11-27T05:55:37.746Z,98675.01
2017-11-27T05:58:05.145Z,98671.09
2017-11-27T06:00:32.567Z,98669.23
2017-11-27T06:02:59.960Z,98682.69
2017-11-27T06:05:27.391Z,98680.86
2017-11-27T06:07:54.800Z,98679.41
2017-11-27T06:10:22.288Z,98684.95
2017-11-27T06:12:49.707Z,98693.44
2017-11-27T06:15:17.223Z,98680.65
2017-11-27T06:17:44.692Z,98671.58
2017-11-27T06:20:12.151Z,98675.27
2017-11-27T06:22:39.567Z,98675.29
2017-11-27T06:25:07.026Z,98674.47
2017-11-27T06:27:34.493Z,98675.40
2017-11-27T06:30:02.032Z,98675.66
2017-11-27T06:32:29.497Z,98674.98
2017-11-27T06:34:56.972Z,98670.50
2017-11-27T06:37:24.360Z,98672.23
2017-11-27T06:39:51.799Z,98666.80
2017-11-27T06:42:19.208Z,98663.88
2017-11-27T06:44:46.897Z,98660.84
2017-11-27T06:47:14.296Z,98666.09
2017-11-27T06:49:41.727Z,98658.37
2017-11-27T06:52:09.171Z,98663.87
2017-11-27T06:54:36.604Z,98657.47
2017-11-27T06:57:03.993Z,98660.98
2017-11-27T06:59:31.463Z,98666.65
2017-11-27T07:01:58.936Z,98676.64
2017-11-27T07:04:26.361Z,98674.17
2017-11-27T07:06:53.751Z,98664.09
2017-11-27T07:09:21.383Z,98661.65
2017-11-27T07:11:48.797Z,98666.30
2017-11-27T07:14:16.193Z,98658.53
2017-11-27T07:16:43.616Z,98657.59
2017-11-27T07:19:11.021Z,98657.53
2017-11-27T07:21:38.457Z,98657.04
2017-11-27T07:24:06.000Z,98654.60
2017-11-27T07:26:33.531Z,98653.42
2017-11-27T07:29:01.009Z,98654.05
2017-11-27T07:31:28.460Z,98657.47
2017-11-27T07:33:55.856Z,98659.47
2017-11-27T07:36:23.313Z,98652.95
2017-11-27T07:38:56.269Z,98656.99
2017-11-27T07:41:23.783Z,98654.76
2017-11-27T07:43:51.200Z,98651.87
2017-11-27T07:46:18.760Z,98650.19
2017-11-27T07:48:46.193Z,98654.77
2017-11-27T07:51:13.657Z,98657.78
2017-11-27T07:53:41.057Z,98660.85
2017-11-27T07:56:08.487Z,98665.32
2017-11-27T07:58:35.906Z,98664.97
2017-11-27T08:01:03.338Z,98669.71
2017-11-27T08:03:30.740Z,98655.64
2017-11-27T08:05:58.192Z,98653.12
2017-11-27T08:08:25.588Z,98652.80
2017-11-27T08:10:53.027Z,98652.17
2017-11-27T08:13:20.468Z,98645.76
2017-11-27T08:15:47.969Z,98644.97
2017-11-27T08:18:15.370Z,98627.58
2017-11-27T08:20:42.816Z,98626.07
2017-11-27T08:23:10.193Z,98633.35
2017-11-27T08:25:37.645Z,98637.70
2017-11-27T08:28:05.198Z,98641.77
2017-11-27T08:30:32.688Z,98641.11
2017-11-27T08:33:00.125Z,98635.03
2017-11-27T08:35:27.604Z,98641.48
2017-11-27T08:37:55.079Z,98631.15
2017-11-27T08:40:22.568Z,98615.95
2017-11-27T08:42:50.150Z,98614.92
2017-11-27T08:45:17.589Z,98612.17
2017-11-27T08:47:45.037Z,98617.52
2017-11-27T08:50:12.425Z,98595.23
2017-11-27T08:52:39.862Z,98591.80
2017-11-27T08:55:07.267Z,98593.35
2017-11-27T08:57:34.736Z,98588.05
2017-11-27T09:00:02.212Z,98581.75
2017-11-27T09:02:29.687Z,98591.80
2017-11-27T09:04:57.155Z,98585.25
2017-11-27T09:07:24.619Z,98580.36
2017-11-27T09:09:52.026Z,98573.33
2017-11-27T09:12:19.491Z,98573.58
2017-11-27T09:14:46.897Z,98568.52
2017-11-27T09:17:14.357Z,98570.27
2017-11-27T09:19:41.749Z,98555.67
2017-11-27T09:22:09.341Z,98555.95
2017-11-27T09:24:36.737Z,98561.75
2017-11-27T09:27:04.181Z,98562.30
2017-11-27T09:29:31.653Z,98553.89
2017-11-27T09:31:59.092Z,98549.38
2017-11-27T09:34:26.600Z,98547.80
2017-11-27T09:36:54.002Z,98552.63
2017-11-27T09:39:21.455Z,98541.56
2017-11-27T09:41:48.881Z,98556.81
2017-11-27T09:44:16.376Z,98554.75
2017-11-27T09:46:43.780Z,98539.76
2017-11-27T09:49:11.291Z,98553.02
2017-11-27T09:51:39.075Z,98543.53
2017-11-27T09:54:06.540Z,98530.89
2017-11-27T09:56:33.936Z,98539.74
2017-11-27T09:59:01.393Z,98524.98
2017-11-27T10:01:28.814Z,98518.09
2017-11-27T10:03:56.256Z,98523.70
2017-11-27T10:06:23.661Z,98525.45
2017-11-27T10:08:51.137Z,98516.52
2017-11-27T10:11:18.663Z,98512.45
2017-11-27T10:13:46.104Z,98510.72
2017-11-27T10:16:13.579Z,98502.05
2017-11-27T10:18:41.019Z,98497.92
2017-11-27T10:21:08.517Z,98496.75
2017-11-27T10:23:35.980Z,98486.91
2017-11-27T10:26:03.365Z,98500.37
2017-11-27T10:28:30.827Z,98498.70
2017-11-27T10:30:58.296Z,98492.28
2017-11-27T10:33:25.768Z,98484.06
2017-11-27T10:35:53.187Z,98483.33
2017-11-27T10:38:20.643Z,98475.88
2017-11-27T10:40:48.097Z,98471.86
2017-11-27T10:43:15.543Z,98469.20
2017-11-27T10:45:42.935Z,98466.74
2017-11-27T10:48:10.370Z,98449.16
2017-11-27T10:50:37.763Z,98451.81
2017-11-27T10:53:05.326Z,98447.34
2017-11-27T10:55:32.790Z,98442.81
2017-11-27T10:58:00.201Z,98442.91
2017-11-27T11:00:33.376Z,98440.61
2017-11-27T11:03:00.780Z,98438.19
2017-11-27T11:05:28.244Z,98430.20
2017-11-27T11:07:55.669Z,98429.13
2017-11-27T11:10:23.249Z,98427.55
2017-11-27T11:12:50.672Z,98427.36
2017-11-27T11:15:18.121Z,98422.86
2017-11-27T11:17:45.509Z,98420.47
2017-11-27T11:20:12.940Z,98414.25
2017-11-27T11:22:40.481Z,98400.00
2017-11-27T11:25:07.936Z,98409.46
2017-11-27T11:27:35.454Z,98408.37
2017-11-27T11:30:02.998Z,98401.68
2017-11-27T11:32:30.397Z,98406.09
2017-11-27T11:34:57.836Z,98395.22
2017-11-27T11:37:25.229Z,98391.06
2017-11-27T11:39:52.692Z,98373.52
2017-11-27T11:42:20.206Z,98383.00
2017-11-27T11:44:47.728Z,98373.95
2017-11-27T11:47:15.119Z,98363.88
2017-11-27T11:49:42.656Z,98363.67
2017-11-27T11:52:10.048Z,98364.80
2017-11-27T11:54:37.489Z,98358.19
2017-11-27T11:57:04.884Z,98352.92
2017-11-27T11:59:32.342Z,98349.45
2017-11-27T12:01:59.801Z,98352.80
2017-11-27T12:04:27.285Z,98347.09
2017-11-27T12:06:54.707Z,98340.61
2017-11-27T12:09:22.100Z,98347.22
2017-11-27T12:11:49.624Z,98347.03
2017-11-27T12:14:17.065Z,98339.89
2017-11-27T12:16:44.515Z,98335.52
2017-11-27T12:19:12.088Z,98328.92
2017-11-27T12:21:39.516Z,98322.61
2017-11-27T12:24:06.945Z,98315.50
2017-11-27T12:26:34.375Z,98311.81
2017-11-27T12:29:01.782Z,98318.61
2017-11-27T12:31:29.265Z,98318.03
2017-11-27T12:33:56.715Z,98320.28
2017-11-27T12:36:24.173Z,98306.14
2017-11-27T12:38:51.592Z,98305.00
2017-11-27T12:41:19.104Z,98294.45
2017-11-27T12:43:46.503Z,98304.73
2017-11-27T12:46:13.943Z,98299.84
2017-11-27T12:48:41.336Z,98288.63
2017-11-27T12:51:08.792Z,98282.34
2017-11-27T12:53:36.180Z,98283.75
2017-11-27T12:56:03.734Z,98275.95
2017-11-27T12:58:31.125Z,98277.78
2017-11-27T13:00:58.573Z,98267.92
2017-11-27T13:03:25.974Z,98264.80
2017-11-27T13:05:53.521Z,98258.78
2017-11-27T13:08:21.033Z,98262.46
2017-11-27T13:10:48.527Z,98258.58
2017-11-27T13:13:15.928Z,98252.88
2017-11-27T13:15:43.353Z,98251.80
2017-11-27T13:18:10.812Z,98250.97
2017-11-27T13:20:38.200Z,98241.20
2017-11-27T13:23:05.716Z,98247.59
2017-11-27T13:25:33.154Z,98243.47
2017-11-27T13:28:00.635Z,98246.66
2017-11-27T13:30:28.031Z,98238.53
2017-11-27T13:32:55.464Z,98239.55
2017-11-27T13:35:22.965Z,98238.36
2017-11-27T13:37:50.405Z,98242.23
2017-11-27T13:40:17.806Z,98238.36
2017-11-27T13:42:45.235Z,98238.64
2017-11-27T13:45:12.632Z,98237.73
2017-11-27T13:47:40.092Z,98226.78
2017-11-27T13:50:07.493Z,98218.84
2017-11-27T13:52:37.384Z,98206.44
2017-11-27T13:55:06.555Z,98212.34
2017-11-27T13:57:38.760Z,98219.45
2017-11-27T14:00:06.548Z,98215.36
2017-11-27T14:02:33.972Z,98204.10
2017-11-27T14:05:01.396Z,98206.75
2017-11-27T14:07:28.832Z,98200.25
2017-11-27T14:09:56.340Z,98203.58
2017-11-27T14:12:23.812Z,98200.95
2017-11-27T14:14:51.375Z,98204.22
2017-11-27T14:17:18.934Z,98201.05
2017-11-27T14:19:46.425Z,98198.00
2017-11-27T14:22:13.883Z,98185.11
2017-11-27T14:24:41.284Z,98186.72
2017-11-27T14:27:08.727Z,98189.28
2017-11-27T14:29:36.147Z,98177.51
2017-11-27T14:32:03.589Z,98180.55
2017-11-27T14:34:30.994Z,98178.61
2017-11-27T14:36:58.390Z,98185.41
2017-11-27T14:39:25.875Z,98174.55
2017-11-27T14:41:53.288Z,98162.98
2017-11-27T14:44:20.755Z,98155.56
2017-11-27T14:46:48.195Z,98166.44
2017-11-27T14:49:15.642Z,98160.84
2017-11-27T14:51:43.031Z,98145.82
2017-11-27T14:54:10.602Z,98147.47
2017-11-27T14:56:38.089Z,98146.95
2017-11-27T14:59:05.535Z,98145.73
2017-11-27T15:01:32.938Z,98138.41
2017-11-27T15:04:00.395Z,98143.30
2017-11-27T15:06:27.852Z,98134.95
2017-11-27T15:08:55.362Z,98128.26
2017-11-27T15:11:22.779Z,98126.92
2017-11-27T15:13:50.253Z,98121.97
2017-11-27T15:16:17.724Z,98122.38
2017-11-27T15:18:45.168Z,98113.13
2017-11-27T15:21:12.601Z,98109.89
2017-11-27T15:23:40.037Z,98109.58
2017-11-27T15:26:07.428Z,98108.67
2017-11-27T15:28:34.880Z,98106.73
2017-11-27T15:31:02.273Z,98103.29
2017-11-27T15:33:29.711Z,98101.75
2017-11-27T15:35:57.151Z,98092.93
2017-11-27T15:38:24.662Z,98099.02
2017-11-27T15:40:52.106Z,98094.65
2017-11-27T15:43:19.581Z,98078.13
2017-11-27T15:45:47.009Z,98081.15
2017-11-27T15:48:14.408Z,98074.95
2017-11-27T15:50:41.877Z,98076.50
2017-11-27T15:53:09.341Z,98073.03
2017-11-27T15:55:36.789Z,98073.55
2017-11-27T15:58:04.206Z,98067.33
2017-11-27T16:00:31.653Z,98055.67
2017-11-27T16:02:59.092Z,98050.60
2017-11-27T16:05:26.549Z,98046.55
2017-11-27T16:07:53.958Z,98044.73
2017-11-27T16:10:21.481Z,98046.23
2017-11-27T16:12:48.878Z,98040.67
2017-11-27T16:15:16.324Z,98037.92
2017-11-27T16:17:43.738Z,98041.86
2017-11-27T16:20:11.185Z,98039.33
2017-11-27T16:22:38.685Z,98027.26
2017-11-27T16:25:06.138Z,98027.06
2017-11-27T16:27:33.615Z,98023.42
2017-11-27T16:30:01.076Z,98017.20
2017-11-27T16:32:28.577Z,98006.66
2017-11-27T16:34:56.898Z,98007.28
2017-11-27T16:37:24.325Z,97989.02
2017-11-27T16:39:51.756Z,98002.00
2017-11-27T16:42:19.728Z,97991.92
2017-11-27T16:44:47.591Z,97993.07
2017-11-27T16:47:15.758Z,97989.52
2017-11-27T16:49:43.821Z,97987.80
2017-11-27T16:52:11.976Z,97973.87
2017-11-27T16:54:40.098Z,97969.89
2017-11-27T16:57:08.202Z,97979.54
2017-11-27T16:59:36.278Z,97966.58
2017-11-27T17:02:04.190Z,97968.81
2017-11-27T17:04:32.559Z,97966.06
2017-11-27T17:07:00.542Z,97965.05
2017-11-27T17:09:28.729Z,97955.61
2017-11-27T17:11:56.689Z,97950.83
2017-11-27T17:14:24.722Z,97951.76
2017-11-27T17:16:52.908Z,97946.19
2017-11-27T17:19:20.834Z,97951.03
2017-11-27T17:21:48.928Z,97939.39
2017-11-27T17:24:16.955Z,97942.83
2017-11-27T17:26:45.104Z,97932.67
2017-11-27T17:29:13.274Z,97930.23
2017-11-27T17:31:41.709Z,97925.86
2017-11-27T17:34:09.837Z,97922.21
2017-11-27T17:36:38.298Z,97917.64
2017-11-27T17:39:07.174Z,97913.07
2017-11-27T17:41:35.426Z,97913.98
2017-11-27T17:44:03.870Z,97900.22
2017-11-27T17:46:31.617Z,97911.39
2017-11-27T17:48:59.989Z,97896.75
2017-11-27T17:51:28.153Z,97887.69
2017-11-27T17:53:56.465Z,97889.96
2017-11-27T17:56:24.893Z,97881.33
2017-11-27T17:58:53.198Z,97865.90
2017-11-27T18:01:21.276Z,97873.58
2017-11-27T18:03:49.452Z,97860.89
2017-11-27T18:06:17.938Z,97872.71
2017-11-27T18:08:46.267Z,97863.07
2017-11-27T18:11:14.553Z,97867.84
2017-11-27T18:13:42.765Z,97858.67
2017-11-27T18:16:10.822Z,97855.25
2017-11-27T18:18:38.609Z,97847.12
2017-11-27T18:21:06.564Z,97846.91
2017-11-27T18:23:35.072Z,97848.11
2017-11-27T18:26:03.710Z,97838.88
2017-11-27T18:28:32.258Z,97831.87
2017-11-27T18:31:00.221Z,97829.64
2017-11-27T18:33:28.107Z,97831.98
2017-11-27T18:35:56.318Z,97824.07
2017-11-27T18:38:24.279Z,97818.67
2017-11-27T18:40:52.398Z,97815.88
2017-11-27T18:43:19.907Z,97821.31
2017-11-27T18:45:47.350Z,97816.47
2017-11-27T18:48:14.828Z,97818.39
2017-11-27T18:50:42.232Z,97837.36
2017-11-27T18:53:09.681Z,97808.14
2017-11-27T18:55:37.072Z,97806.39
2017-11-27T18:58:04.497Z,97807.94
2017-11-27T19:00:32.003Z,97798.92
2017-11-27T19:02:59.490Z,97792.55
2017-11-27T19:05:26.945Z,97814.84
2017-11-27T19:07:54.397Z,97794.32
2017-11-27T19:10:21.876Z,97784.52
2017-11-27T19:12:49.315Z,97779.12
2017-11-27T19:15:16.722Z,97784.50
2017-11-27T19:17:44.223Z,97776.05
2017-11-27T19:20:11.655Z,97769.47
2017-11-27T19:22:39.116Z,97778.11
2017-11-27T19:25:06.594Z,97771.41
2017-11-27T19:27:34.033Z,97771.62
2017-11-27T19:30:01.444Z,97764.94
2017-11-27T19:32:28.903Z,97753.97
2017-11-27T19:34:56.360Z,97753.23
2017-11-27T19:37:23.791Z,97763.47
2017-11-27T19:39:51.253Z,97765.22
2017-11-27T19:42:18.718Z,97758.72
2017-11-27T19:44:46.157Z,97754.36
2017-11-27T19:47:13.555Z,97755.77
2017-11-27T19:49:41.077Z,97743.84
2017-11-27T19:52:08.472Z,97744.91
2017-11-27T19:54:35.942Z,97749.08
2017-11-27T19:57:03.398Z,97758.49
2017-11-27T19:59:30.873Z,97763.88
2017-11-27T20:01:58.360Z,97751.28
2017-11-27T20:04:25.854Z,97760.14
2017-11-27T20:06:53.467Z,97764.30
2017-11-27T20:09:20.934Z,97750.45
2017-11-27T20:11:48.336Z,97747.66
2017-11-27T20:14:16.810Z,97748.41
2017-11-27T20:16:44.227Z,97738.63
2017-11-27T20:19:11.693Z,97730.88
2017-11-27T20:21:39.111Z,97726.02
2017-11-27T20:24:06.598Z,97733.12
2017-11-27T20:26:33.991Z,97717.19
2017-11-27T20:29:01.440Z,97706.20
2017-11-27T20:31:29.141Z,97714.31
2017-11-27T20:33:56.621Z,97705.96
2017-11-27T20:36:24.089Z,97707.72
2017-11-27T20:38:51.537Z,97696.88
2017-11-27T20:41:18.996Z,97699.19
2017-11-27T20:43:46.419Z,97688.05
2017-11-27T20:46:13.863Z,97692.69
2017-11-27T20:48:41.263Z,97689.45
2017-11-27T20:51:08.700Z,97680.31
2017-11-27T20:53:36.223Z,97695.87
2017-11-27T20:56:03.680Z,97688.05
2017-11-27T20:58:31.080Z,97683.28
2017-11-27T21:00:58.595Z,97678.64
2017-11-27T21:03:26.025Z,97675.12
2017-11-27T21:05:54.553Z,97673.06
2017-11-27T21:08:21.969Z,97675.80
2017-11-27T21:10:49.496Z,97667.28
2017-11-27T21:13:16.883Z,97660.78
2017-11-27T21:15:44.425Z,97657.00
2017-11-27T21:18:11.841Z,97653.27
2017-11-27T21:20:39.339Z,97647.18
2017-11-27T21:23:06.760Z,97658.68
2017-11-27T21:25:34.308Z,97648.23
2017-11-27T21:28:01.753Z,97639.91
2017-11-27T21:30:29.246Z,97654.28
2017-11-27T21:32:56.685Z,97642.84
2017-11-27T21:35:24.139Z,97647.11
2017-11-27T21:37:51.621Z,97636.86
2017-11-27T21:40:19.297Z,97627.12
2017-11-27T21:42:46.697Z,97635.41
2017-11-27T21:45:14.153Z,97635.54
2017-11-27T21:47:41.642Z,97625.09
2017-11-27T21:50:09.097Z,97613.86
2017-11-27T21:52:36.509Z,97620.19
2017-11-27T21:55:04.016Z,97629.73
2017-11-27T21:57:31.421Z,97617.24
2017-11-27T21:59:58.884Z,97617.62
2017-11-27T22:02:26.321Z,97611.86
2017-11-27T22:04:53.775Z,97613.22
2017-11-27T22:07:21.191Z,97603.75
2017-11-27T22:09:48.584Z,97607.80
2017-11-27T22:12:16.036Z,97606.11
2017-11-27T22:14:43.561Z,97603.98
2017-11-27T22:17:11.070Z,97595.97
2017-11-27T22:19:38.534Z,97595.80
2017-11-27T22:22:05.989Z,97595.69
2017-11-27T22:24:33.387Z,97589.77
2017-11-27T22:27:00.951Z,97590.92
2017-11-27T22:29:28.516Z,97582.91
2017-11-27T22:31:56.011Z,97578.14
2017-11-27T22:34:23.453Z,97579.77
2017-11-27T22:36:50.887Z,97582.57
2017-11-27T22:39:18.376Z,97559.98
2017-11-27T22:41:45.840Z,97548.41
2017-11-27T22:44:13.302Z,97570.63
2017-11-27T22:46:40.776Z,97552.16
2017-11-27T22:49:08.257Z,97558.62
2017-11-27T22:51:35.736Z,97552.73
2017-11-27T22:54:03.123Z,97550.80
2017-11-27T22:56:30.566Z,97537.38
2017-11-27T22:58:57.984Z,97539.48
2017-11-27T23:01:25.543Z,97541.00
2017-11-27T23:03:52.983Z,97531.16
2017-11-27T23:06:20.447Z,97535.69
2017-11-27T23:08:47.912Z,97525.91
2017-11-27T23:11:15.301Z,97515.80
2017-11-27T23:13:42.775Z,97514.38
2017-11-27T23:16:10.213Z,97512.98
2017-11-27T23:18:37.711Z,97501.36
2017-11-27T23:21:05.100Z,97498.28
2017-11-27T23:23:32.528Z,97492.80
2017-11-27T23:25:59.906Z,97482.15
2017-11-27T23:28:27.666Z,97497.27
2017-11-27T23:30:55.364Z,97490.81
2017-11-27T23:33:22.916Z,97488.75
2017-11-27T23:35:50.308Z,97487.67
2017-11-27T23:38:17.748Z,97487.77
2017-11-27T23:40:45.227Z,97486.88
2017-11-27T23:43:12.829Z,97483.88
2017-11-27T23:45:40.268Z,97494.89
2017-11-27T23:48:07.735Z,97477.54
2017-11-27T23:50:35.123Z,97475.72
2017-11-27T23:53:02.539Z,97470.89
2017-11-27T23:55:30.149Z,97471.70
2017-11-27T23:57:57.714Z,97465.11
